CMA CGM Columba — 2DBC9 — position and weather

sailwx.info

Track history (hours):
 
Tides and Currents Weather Stations Pressure Air Temp Water Temp Dewpoint Dewpoint Depression Visibility Wind Speed Wind Dir Waves Ship Positions

CMA CGM Columba

Last reported at 2015-Mar-20 15:30 UTC. Time now 2015-Mar-31 11:23 UTC.
Position N 01°12' E 103°53'.
Warning: this ship's position is 10 days out of date.

Length 363 m; draft 14.1 m.

Type: Ship (hazmat cat A). MMSI: 235077448.

Date/timePositionNaut miles runAvg speedWind from/ knotsBaromVisibWave heightAir tempDewpointWater temp
2015-Mar-20 15:30N 01°12' E 103°53'  
2015-Mar-16 22:32N 22°34' E 114°17'16 5.5
2015-Mar-16 19:32N 22°23' E 114°30'14 9.8
2015-Mar-16 18:10N 22°18' E 114°44'20212.8
2015-Mar-16 02:25N 23°36' E 118°06'6121.2
2015-Mar-15 23:32N 24°17' E 118°55'2221.2
2015-Mar-15 22:31N 24°32' E 119°13'40019.1
2015-Mar-15 01:33N 30°31' E 122°31'1616.2
2015-Mar-15 00:34N 30°33' E 122°13'8 8.2
2015-Mar-14 23:34N 30°37' E 122°04'0 0.0
2015-Mar-14 22:31N 30°37' E 122°04'0 0.0
2015-Mar-14 21:25N 30°37' E 122°04'0 0.0
2015-Mar-14 20:25N 30°37' E 122°04'0 0.0
2015-Mar-14 19:31N 30°37' E 122°04'0 0.0
2015-Mar-14 18:34N 30°37' E 122°04'0 0.1
2015-Mar-14 17:34N 30°37' E 122°04'0 0.0
2015-Mar-14 16:31N 30°37' E 122°04'0 0.0
2015-Mar-14 15:31N 30°37' E 122°04'0 0.0
2015-Mar-14 14:34N 30°37' E 122°04'0 0.0
2015-Mar-14 13:31N 30°37' E 122°04'0 0.0
2015-Mar-14 12:31N 30°37' E 122°04'0 0.0
2015-Mar-14 11:31N 30°37' E 122°04'0 0.0
2015-Mar-14 10:34N 30°37' E 122°04'0 0.0
2015-Mar-14 09:34N 30°37' E 122°04'0 0.0
2015-Mar-14 08:31N 30°37' E 122°04'0 0.0
2015-Mar-14 07:22N 30°37' E 122°04'0 0.0
2015-Mar-14 06:28N 30°37' E 122°04'0 0.0
2015-Mar-14 05:31N 30°37' E 122°04'0 0.0
2015-Mar-14 04:31N 30°37' E 122°04'0 0.0
2015-Mar-14 03:31N 30°37' E 122°04'1 0.6
2015-Mar-14 02:33N 30°36' E 122°04'5 4.6
2015-Mar-14 01:34N 30°35' E 122°09'7 6.7
2015-Mar-14 00:33N 30°33' E 122°17'5 5.1
2015-Mar-13 23:33N 30°33' E 122°22'8 7.8
2015-Mar-13 22:33N 30°34' E 122°31'7 6.8
2015-Mar-13 21:32N 30°36' E 122°39'8 7.8
2015-Mar-13 20:33N 30°35' E 122°48'1211.7
2015-Mar-13 19:31N 30°37' E 123°02'1010.5
2015-Mar-13 18:33N 30°41' E 123°13'1410.9
2015-Mar-13 17:15N 30°55' E 123°13'911.6
2015-Mar-13 16:26N 31°04' E 123°17'1111.3
2015-Mar-13 15:31N 31°15' E 123°15'1412.6
2015-Mar-13 14:22N 31°29' E 123°14'1112.9
2015-Mar-13 13:32N 31°40' E 123°14'28613.6
2015-Mar-12 16:30N 35°57' E 120°42'1616.9
2015-Mar-12 15:33N 36°00' E 120°23'9 8.1
2015-Mar-12 14:28N 36°00' E 120°12'0 0.0
2015-Mar-12 07:06N 36°01' E 120°12'0 0.0
2015-Mar-12 05:30N 36°01' E 120°12'0 0.0
2015-Mar-12 04:06N 36°01' E 120°12'0 0.0
2015-Mar-12 00:25N 36°01' E 120°12'0 0.0
2015-Mar-11 22:24N 36°01' E 120°12'0 0.0
2015-Mar-11 21:30N 36°01' E 120°12'0 0.0
2015-Mar-11 20:30N 36°01' E 120°12'0 0.0
2015-Mar-11 19:30N 36°01' E 120°12'0 0.0
2015-Mar-11 18:25N 36°01' E 120°12'4 4.8
2015-Mar-11 17:32N 36°02' E 120°17'8 7.7
2015-Mar-11 16:33N 36°01' E 120°27'11 9.8
2015-Mar-11 15:28N 35°58' E 120°39'  
Track history (hours):
 
Tides and Currents Weather Stations Pressure Air Temp Water Temp Dewpoint Dewpoint Depression Visibility Wind Speed Wind Dir Waves Ship Positions

CMA CGM Columba

Last reported at 2015-Mar-20 15:30 UTC. Time now 2015-Mar-31 11:23 UTC.
Position N 01°12' E 103°53'.
Warning: this ship's position is 10 days out of date.

Length 363 m; draft 14.1 m.

Type: Ship (hazmat cat A). MMSI: 235077448.

Date/timePositionNaut miles runAvg speedWind from/ knotsBaromVisibWave heightAir tempDewpointWater temp
2015-Mar-20 15:30N 01°12' E 103°53'  
2015-Mar-16 22:32N 22°34' E 114°17'16 5.5
2015-Mar-16 19:32N 22°23' E 114°30'14 9.8
2015-Mar-16 18:10N 22°18' E 114°44'20212.8
2015-Mar-16 02:25N 23°36' E 118°06'6121.2
2015-Mar-15 23:32N 24°17' E 118°55'2221.2
2015-Mar-15 22:31N 24°32' E 119°13'40019.1
2015-Mar-15 01:33N 30°31' E 122°31'1616.2
2015-Mar-15 00:34N 30°33' E 122°13'8 8.2
2015-Mar-14 23:34N 30°37' E 122°04'0 0.0
2015-Mar-14 22:31N 30°37' E 122°04'0 0.0
2015-Mar-14 21:25N 30°37' E 122°04'0 0.0
2015-Mar-14 20:25N 30°37' E 122°04'0 0.0
2015-Mar-14 19:31N 30°37' E 122°04'0 0.0
2015-Mar-14 18:34N 30°37' E 122°04'0 0.1
2015-Mar-14 17:34N 30°37' E 122°04'0 0.0
2015-Mar-14 16:31N 30°37' E 122°04'0 0.0
2015-Mar-14 15:31N 30°37' E 122°04'0 0.0
2015-Mar-14 14:34N 30°37' E 122°04'0 0.0
2015-Mar-14 13:31N 30°37' E 122°04'0 0.0
2015-Mar-14 12:31N 30°37' E 122°04'0 0.0
2015-Mar-14 11:31N 30°37' E 122°04'0 0.0
2015-Mar-14 10:34N 30°37' E 122°04'0 0.0
2015-Mar-14 09:34N 30°37' E 122°04'0 0.0
2015-Mar-14 08:31N 30°37' E 122°04'0 0.0
2015-Mar-14 07:22N 30°37' E 122°04'0 0.0
2015-Mar-14 06:28N 30°37' E 122°04'0 0.0
2015-Mar-14 05:31N 30°37' E 122°04'0 0.0
2015-Mar-14 04:31N 30°37' E 122°04'0 0.0
2015-Mar-14 03:31N 30°37' E 122°04'1 0.6
2015-Mar-14 02:33N 30°36' E 122°04'5 4.6
2015-Mar-14 01:34N 30°35' E 122°09'7 6.7
2015-Mar-14 00:33N 30°33' E 122°17'5 5.1
2015-Mar-13 23:33N 30°33' E 122°22'8 7.8
2015-Mar-13 22:33N 30°34' E 122°31'7 6.8
2015-Mar-13 21:32N 30°36' E 122°39'8 7.8
2015-Mar-13 20:33N 30°35' E 122°48'1211.7
2015-Mar-13 19:31N 30°37' E 123°02'1010.5
2015-Mar-13 18:33N 30°41' E 123°13'1410.9
2015-Mar-13 17:15N 30°55' E 123°13'911.6
2015-Mar-13 16:26N 31°04' E 123°17'1111.3
2015-Mar-13 15:31N 31°15' E 123°15'1412.6
2015-Mar-13 14:22N 31°29' E 123°14'1112.9
2015-Mar-13 13:32N 31°40' E 123°14'28613.6
2015-Mar-12 16:30N 35°57' E 120°42'1616.9
2015-Mar-12 15:33N 36°00' E 120°23'9 8.1
2015-Mar-12 14:28N 36°00' E 120°12'0 0.0
2015-Mar-12 07:06N 36°01' E 120°12'0 0.0
2015-Mar-12 05:30N 36°01' E 120°12'0 0.0
2015-Mar-12 04:06N 36°01' E 120°12'0 0.0
2015-Mar-12 00:25N 36°01' E 120°12'0 0.0
2015-Mar-11 22:24N 36°01' E 120°12'0 0.0
2015-Mar-11 21:30N 36°01' E 120°12'0 0.0
2015-Mar-11 20:30N 36°01' E 120°12'0 0.0
2015-Mar-11 19:30N 36°01' E 120°12'0 0.0
2015-Mar-11 18:25N 36°01' E 120°12'4 4.8
2015-Mar-11 17:32N 36°02' E 120°17'8 7.7
2015-Mar-11 16:33N 36°01' E 120°27'11 9.8
2015-Mar-11 15:28N 35°58' E 120°39'  

Dump ship's entire track history